Kelsey, Minnesota
Current Conditions -  °F | °C
As of 9:31 AM on Saturday 25 Oct 2014 (Local Time) from KEVM Reporting Station
Clear Clear  
Wind Chill: 38°   Ceiling: Unl
Heat Index: 45°   Visibility: 10mi
Dew Point: 32°   Wind: 14mph
Humidity: 61%   Direction: 280°W
Pressure: 29.91"   Gusts: 26mph
Location:  47.1793°N, 92.3523°W
Report Text: KEVM 251431Z AUTO 28012G23KT 10SM CLR 07/00 A2991 RMK AO2
Loading
Personal Weather Stations






























Interactive Weather Map
Tropical Storm Tracking
New forecast layout! Learn more

10-Day Weather Forecast

Advertisements
Track Severe Weather on mobile